createdAt,value
2019-03-17T00:01:16.060Z,6.20
2019-03-17T00:03:42.907Z,6.10
2019-03-17T00:06:09.767Z,6.10
2019-03-17T00:08:36.594Z,6.00
2019-03-17T00:11:03.484Z,6.00
2019-03-17T00:13:30.285Z,5.90
2019-03-17T00:15:57.120Z,5.80
2019-03-17T00:18:23.964Z,5.90
2019-03-17T00:20:50.807Z,5.80
2019-03-17T00:23:17.652Z,5.70
2019-03-17T00:25:44.494Z,5.70
2019-03-17T00:28:11.339Z,5.60
2019-03-17T00:30:38.182Z,5.70
2019-03-17T00:33:05.024Z,5.60
2019-03-17T00:35:31.569Z,5.50
2019-03-17T00:37:58.404Z,5.40
2019-03-17T00:40:25.248Z,5.40
2019-03-17T00:42:52.090Z,5.30
2019-03-17T00:45:18.935Z,5.30
2019-03-17T00:47:45.781Z,5.20
2019-03-17T00:50:12.396Z,5.50
2019-03-17T00:52:39.161Z,5.60
2019-03-17T00:55:06.051Z,5.60
2019-03-17T00:57:32.844Z,5.50
2019-03-17T00:59:59.687Z,5.50
2019-03-17T01:02:26.269Z,5.60
2019-03-17T01:04:56.391Z,5.80
2019-03-17T01:07:21.139Z,6.10
2019-03-17T01:09:47.984Z,6.50
2019-03-17T01:12:14.825Z,6.50
2019-03-17T01:14:41.669Z,6.70
2019-03-17T01:17:08.513Z,6.70
2019-03-17T01:19:35.358Z,7.00
2019-03-17T01:22:07.562Z,7.00
2019-03-17T01:24:34.265Z,7.00
2019-03-17T01:27:01.110Z,7.00
2019-03-17T01:29:27.952Z,7.00
2019-03-17T01:31:54.796Z,7.00
2019-03-17T01:34:21.639Z,7.00
2019-03-17T01:36:48.219Z,6.90
2019-03-17T01:39:14.756Z,6.80
2019-03-17T01:41:41.555Z,6.80
2019-03-17T01:44:08.400Z,6.70
2019-03-17T01:46:35.241Z,6.60
2019-03-17T01:49:02.085Z,6.50
2019-03-17T01:51:28.930Z,6.50
2019-03-17T01:53:55.513Z,6.40
2019-03-17T01:56:22.309Z,6.40
2019-03-17T01:58:49.151Z,6.20
2019-03-17T02:01:15.999Z,6.10
2019-03-17T02:03:42.838Z,6.00
2019-03-17T02:06:09.682Z,5.90
2019-03-17T02:08:36.264Z,5.90
2019-03-17T02:11:03.061Z,5.80
2019-03-17T02:13:29.908Z,5.70
2019-03-17T02:15:56.748Z,5.60
2019-03-17T02:18:23.592Z,5.60
2019-03-17T02:20:50.434Z,5.60
2019-03-17T02:23:17.278Z,5.50
2019-03-17T02:25:44.121Z,5.50
2019-03-17T02:28:10.964Z,5.50
2019-03-17T02:30:37.548Z,5.50
2019-03-17T02:33:04.089Z,5.40
2019-03-17T02:35:38.770Z,5.40
2019-03-17T02:37:59.261Z,5.30
2019-03-17T02:40:26.104Z,5.30
2019-03-17T02:42:52.657Z,5.30
2019-03-17T02:45:19.489Z,5.20
2019-03-17T02:47:46.328Z,5.20
2019-03-17T02:50:13.173Z,5.20
2019-03-17T02:52:40.033Z,5.30
2019-03-17T02:55:07.470Z,5.30
2019-03-17T02:57:34.345Z,5.30
2019-03-17T03:00:01.162Z,5.30
2019-03-17T03:02:28.003Z,5.30
2019-03-17T03:04:54.593Z,5.30
2019-03-17T03:07:21.382Z,5.30
2019-03-17T03:09:48.226Z,5.30
2019-03-17T03:12:15.068Z,5.30
2019-03-17T03:14:41.912Z,5.30
2019-03-17T03:17:08.756Z,5.40
2019-03-17T03:19:35.599Z,5.40
2019-03-17T03:22:02.441Z,5.50
2019-03-17T03:24:29.286Z,5.50
2019-03-17T03:26:56.144Z,5.60
2019-03-17T03:29:22.973Z,5.60
2019-03-17T03:31:49.826Z,5.60
2019-03-17T03:34:16.659Z,5.50
2019-03-17T03:36:43.504Z,5.40
2019-03-17T03:39:10.085Z,5.30
2019-03-17T03:41:36.884Z,5.30
2019-03-17T03:44:03.727Z,5.30
2019-03-17T03:46:30.571Z,5.20
2019-03-17T03:48:57.414Z,5.20
2019-03-17T03:51:24.255Z,5.30
2019-03-17T03:53:51.100Z,5.20
2019-03-17T03:56:17.943Z,5.20
2019-03-17T03:58:45.449Z,5.20
2019-03-17T04:01:11.981Z,5.20
2019-03-17T04:03:38.782Z,5.20
2019-03-17T04:06:05.623Z,5.20
2019-03-17T04:08:32.205Z,5.20
2019-03-17T04:10:59.004Z,5.20
2019-03-17T04:13:25.585Z,5.10
2019-03-17T04:15:52.125Z,5.10
2019-03-17T04:18:18.922Z,5.10
2019-03-17T04:20:45.762Z,5.10
2019-03-17T04:23:12.913Z,5.00
2019-03-17T04:25:39.493Z,5.00
2019-03-17T04:28:06.292Z,4.90
2019-03-17T04:30:33.137Z,4.90
2019-03-17T04:32:59.672Z,4.90
2019-03-17T05:29:18.299Z,4.80
2019-03-17T05:31:45.142Z,4.50
2019-03-17T05:34:11.724Z,4.40
2019-03-17T05:36:38.522Z,4.40
2019-03-17T05:39:05.979Z,4.40
2019-03-17T05:41:32.823Z,4.50
2019-03-17T05:43:59.666Z,4.50
2019-03-17T05:46:26.510Z,4.50
2019-03-17T05:48:53.353Z,4.50
2019-03-17T05:51:20.196Z,4.50
2019-03-17T05:53:47.040Z,4.50
2019-03-17T05:56:13.883Z,4.40
2019-03-17T05:58:40.726Z,4.50
2019-03-17T06:01:07.570Z,4.50
2019-03-17T06:03:34.425Z,4.40
2019-03-17T06:06:01.257Z,4.40
2019-03-17T06:08:28.100Z,4.50
2019-03-17T06:10:54.946Z,4.40
2019-03-17T06:13:21.789Z,4.50
2019-03-17T06:15:48.630Z,4.50
2019-03-17T06:18:15.474Z,4.60
2019-03-17T06:20:42.319Z,4.60
2019-03-17T06:23:09.161Z,4.60
2019-03-17T06:25:36.004Z,4.70
2019-03-17T06:28:02.850Z,4.70
2019-03-17T06:30:29.694Z,4.80
2019-03-17T06:32:56.538Z,4.80
2019-03-17T06:35:23.385Z,4.90
2019-03-17T06:37:50.224Z,5.00
2019-03-17T06:40:16.805Z,5.00
2019-03-17T06:42:43.602Z,5.10
2019-03-17T06:45:10.798Z,5.10
2019-03-17T06:47:37.595Z,5.20
2019-03-17T06:50:08.377Z,5.30
2019-03-17T06:52:34.968Z,5.30
2019-03-17T06:55:01.506Z,5.30
2019-03-17T06:57:28.349Z,5.40
2019-03-17T06:59:55.191Z,5.40
2019-03-17T07:02:21.776Z,5.40
2019-03-17T07:04:48.570Z,5.50
2019-03-17T07:07:15.414Z,5.50
2019-03-17T07:09:41.996Z,5.60
2019-03-17T07:12:08.794Z,5.60
2019-03-17T07:14:35.637Z,5.70
2019-03-17T07:17:02.483Z,5.70
2019-03-17T07:19:29.324Z,5.80
2019-03-17T07:21:56.168Z,5.80
2019-03-17T07:24:22.750Z,5.90
2019-03-17T07:26:49.546Z,5.90
2019-03-17T07:29:16.390Z,6.00
2019-03-17T07:31:43.234Z,6.10
2019-03-17T07:34:10.077Z,6.20
2019-03-17T07:36:36.920Z,6.30
2019-03-17T07:39:11.837Z,6.40
2019-03-17T07:41:33.372Z,6.60
2019-03-17T07:44:00.215Z,6.70
2019-03-17T07:46:27.059Z,6.90
2019-03-17T07:48:53.904Z,7.00
2019-03-17T07:51:20.746Z,7.20
2019-03-17T07:53:47.589Z,7.50
2019-03-17T07:56:14.441Z,7.60
2019-03-17T07:58:41.276Z,7.60
2019-03-17T08:01:08.122Z,7.80
2019-03-17T08:03:34.965Z,7.90
2019-03-17T08:06:01.806Z,8.00
2019-03-17T08:08:28.737Z,8.20
2019-03-17T08:10:55.506Z,8.40
2019-03-17T08:13:22.337Z,8.60
2019-03-17T08:15:49.179Z,8.70
2019-03-17T08:18:15.760Z,8.90
2019-03-17T08:20:42.559Z,9.00
2019-03-17T08:23:09.402Z,9.30
2019-03-17T08:25:35.985Z,9.40
2019-03-17T08:28:02.782Z,9.60
2019-03-17T08:30:29.629Z,9.70
2019-03-17T08:32:56.208Z,9.80
2019-03-17T08:35:23.006Z,10.00
2019-03-17T08:37:49.854Z,10.00
2019-03-17T08:40:17.043Z,10.20
2019-03-17T08:42:43.843Z,10.30
2019-03-17T08:45:12.223Z,10.40
2019-03-17T08:47:39.068Z,10.60
2019-03-17T08:50:09.595Z,10.90
2019-03-17T08:52:36.498Z,11.00
2019-03-17T08:55:04.818Z,11.10
2019-03-17T08:57:31.666Z,11.30
2019-03-17T08:59:58.245Z,11.50
2019-03-17T09:02:25.041Z,11.60
2019-03-17T09:04:51.624Z,11.70
2019-03-17T09:07:18.113Z,11.80
2019-03-17T09:09:44.649Z,12.00
2019-03-17T09:12:11.493Z,12.10
2019-03-17T09:14:38.336Z,12.20
2019-03-17T09:17:14.329Z,12.30
2019-03-17T09:19:33.561Z,12.50
2019-03-17T09:22:00.408Z,12.50
2019-03-17T09:24:27.248Z,12.70
2019-03-17T09:26:54.099Z,12.90
2019-03-17T09:29:20.935Z,13.00
2019-03-17T09:31:47.779Z,13.20
2019-03-17T09:34:14.621Z,13.30
2019-03-17T09:36:41.464Z,13.50
2019-03-17T09:39:08.308Z,13.60
2019-03-17T09:41:35.151Z,13.80
2019-03-17T09:44:01.994Z,14.00
2019-03-17T09:46:28.529Z,14.10
2019-03-17T09:48:55.387Z,14.10
2019-03-17T09:51:22.216Z,14.20
2019-03-17T09:53:49.059Z,14.30
2019-03-17T09:56:15.904Z,14.40
2019-03-17T09:58:45.456Z,14.50
2019-03-17T10:01:11.126Z,14.70
2019-03-17T10:03:37.970Z,14.80
2019-03-17T10:06:04.813Z,15.00
2019-03-17T10:08:31.657Z,15.10
2019-03-17T10:10:58.499Z,15.20
2019-03-17T10:13:25.358Z,15.30
2019-03-17T10:15:52.186Z,15.40
2019-03-17T10:33:00.090Z,15.50
2019-03-17T10:35:26.933Z,16.30
2019-03-17T10:37:53.516Z,16.50
2019-03-17T10:40:20.665Z,16.50
2019-03-17T10:42:47.474Z,16.60
2019-03-17T10:45:14.048Z,16.80
2019-03-17T10:47:40.843Z,16.90
2019-03-17T10:50:09.223Z,17.00
2019-03-17T10:52:36.066Z,17.00
2019-03-17T10:55:24.414Z,17.10
2019-03-17T10:57:51.262Z,17.10
2019-03-17T11:00:19.636Z,17.20
2019-03-17T11:02:46.483Z,17.30
2019-03-17T11:05:13.323Z,17.40
2019-03-17T11:07:40.168Z,17.50
2019-03-17T11:10:07.674Z,17.40
2019-03-17T11:12:34.467Z,17.50
2019-03-17T11:15:01.145Z,17.60
2019-03-17T11:17:27.851Z,17.70
2019-03-17T11:19:54.691Z,17.70
2019-03-17T11:22:21.272Z,17.80
2019-03-17T11:24:48.071Z,17.90
2019-03-17T11:27:14.652Z,17.90
2019-03-17T11:29:41.451Z,18.00
2019-03-17T11:32:07.988Z,18.00
2019-03-17T11:34:34.831Z,18.00
2019-03-17T11:37:01.679Z,18.10
2019-03-17T11:39:37.339Z,18.10
2019-03-17T11:41:56.896Z,18.20
2019-03-17T11:44:23.740Z,18.30
2019-03-17T11:46:50.584Z,18.40
2019-03-17T11:49:17.426Z,18.50
2019-03-17T11:51:44.269Z,18.50
2019-03-17T11:54:11.117Z,18.50
2019-03-17T11:56:37.699Z,18.50
2019-03-17T11:59:04.493Z,18.50
2019-03-17T12:01:31.076Z,18.50
2019-03-17T12:03:57.874Z,18.60
2019-03-17T12:06:24.716Z,18.60
2019-03-17T12:08:51.560Z,18.70
2019-03-17T12:11:18.402Z,18.80
2019-03-17T12:13:45.247Z,18.90
2019-03-17T12:16:12.090Z,19.00
2019-03-17T12:18:38.672Z,19.00
2019-03-17T12:21:05.238Z,19.00
2019-03-17T12:23:32.013Z,19.20
2019-03-17T12:25:58.851Z,19.20
2019-03-17T12:28:25.432Z,19.20
2019-03-17T12:30:52.229Z,19.30
2019-03-17T12:33:19.072Z,19.30
2019-03-17T12:35:47.145Z,19.40
2019-03-17T12:38:13.988Z,19.40
2019-03-17T12:40:40.569Z,19.60
2019-03-17T12:43:07.370Z,19.60
2019-03-17T12:45:34.210Z,19.70
2019-03-17T12:48:00.857Z,19.80
2019-03-17T12:50:27.593Z,19.80
2019-03-17T12:52:54.438Z,19.80
2019-03-17T12:55:21.279Z,19.70
2019-03-17T12:57:48.119Z,19.80
2019-03-17T13:00:16.500Z,19.80
2019-03-17T13:02:43.342Z,19.80
2019-03-17T13:05:10.540Z,20.00
2019-03-17T13:07:37.076Z,20.00
2019-03-17T13:10:15.205Z,20.10
2019-03-17T13:12:33.788Z,20.10
2019-03-17T13:15:00.632Z,20.20
2019-03-17T13:17:27.490Z,20.20
2019-03-17T13:19:54.318Z,20.30
2019-03-17T13:22:21.167Z,20.40
2019-03-17T13:24:48.013Z,20.50
2019-03-17T13:29:42.000Z,20.70
2019-03-17T13:32:08.843Z,20.80
2019-03-17T13:34:35.687Z,20.80
2019-03-17T13:37:02.530Z,20.80
2019-03-17T13:39:29.373Z,20.90
2019-03-17T13:41:55.956Z,20.90
2019-03-17T13:44:22.752Z,20.70
2019-03-17T13:46:49.332Z,20.50
2019-03-17T13:49:16.133Z,20.30
2019-03-17T13:51:42.975Z,20.00
2019-03-17T13:54:09.820Z,19.90
2019-03-17T13:56:36.662Z,19.80
2019-03-17T13:59:06.172Z,19.70
2019-03-17T14:01:31.885Z,19.70
2019-03-17T14:03:58.729Z,19.70
2019-03-17T14:06:25.317Z,19.40
2019-03-17T14:08:52.108Z,19.30
2019-03-17T14:11:18.953Z,19.10
2019-03-17T14:13:45.796Z,18.90
2019-03-17T14:16:15.530Z,18.90
2019-03-17T14:18:40.710Z,18.60
2019-03-17T14:21:07.558Z,18.40
2019-03-17T14:23:34.400Z,18.40
2019-03-17T14:26:00.980Z,18.30
2019-03-17T14:28:27.471Z,18.30
2019-03-17T14:30:54.007Z,18.40
2019-03-17T14:33:20.851Z,18.60
2019-03-17T14:35:47.692Z,18.60
2019-03-17T14:38:14.843Z,18.50
2019-03-17T14:40:52.939Z,18.40
2019-03-17T14:43:10.068Z,18.40
2019-03-17T14:45:36.909Z,18.40
2019-03-17T14:48:03.753Z,18.40
2019-03-17T14:50:30.596Z,18.20
2019-03-17T14:52:57.440Z,17.90
2019-03-17T14:55:24.285Z,17.70
2019-03-17T14:57:50.864Z,17.60
2019-03-17T15:00:18.327Z,17.60
2019-03-17T15:02:45.122Z,17.60
2019-03-17T15:05:12.274Z,17.50
2019-03-17T15:07:38.852Z,17.40
2019-03-17T15:10:19.765Z,17.30
2019-03-17T15:12:46.325Z,17.20
2019-03-17T15:15:14.128Z,17.10
2019-03-17T15:17:40.927Z,17.00
2019-03-17T15:20:09.248Z,16.90
2019-03-17T15:22:35.843Z,16.90
2019-03-17T15:25:03.302Z,16.90
2019-03-17T15:27:29.884Z,16.40
2019-03-17T15:29:56.679Z,16.20
2019-03-17T15:32:23.524Z,16.00
2019-03-17T15:34:50.367Z,16.00
2019-03-17T15:37:17.210Z,15.80
2019-03-17T15:39:44.053Z,15.70
2019-03-17T15:42:10.636Z,15.60
2019-03-17T15:44:37.433Z,15.50
2019-03-17T15:47:04.276Z,15.40
2019-03-17T15:49:31.122Z,15.30
2019-03-17T15:51:57.963Z,15.20
2019-03-17T15:54:24.822Z,15.10
2019-03-17T15:56:51.696Z,15.00
2019-03-17T15:59:18.496Z,14.90
2019-03-17T16:01:45.338Z,14.80
2019-03-17T16:04:11.916Z,14.80
2019-03-17T16:06:38.717Z,14.70
2019-03-17T16:09:06.174Z,14.70
2019-03-17T16:11:33.018Z,14.70
2019-03-17T16:13:59.861Z,14.60
2019-03-17T16:16:26.705Z,14.50
2019-03-17T16:18:53.548Z,14.40
2019-03-17T16:21:20.392Z,14.20
2019-03-17T16:23:47.085Z,14.00
2019-03-17T16:26:13.771Z,13.70
2019-03-17T16:28:40.310Z,13.40
2019-03-17T16:31:07.150Z,13.10
2019-03-17T16:33:33.731Z,12.70
2019-03-17T16:36:00.272Z,12.40
2019-03-17T16:38:27.066Z,12.30
2019-03-17T16:40:54.524Z,11.60
2019-03-17T16:43:21.368Z,11.40
2019-03-17T16:45:48.212Z,11.20
2019-03-17T16:48:15.054Z,11.20
2019-03-17T16:50:41.590Z,11.00
2019-03-17T16:53:08.434Z,10.90
2019-03-17T16:55:35.016Z,10.50
2019-03-17T16:58:01.814Z,10.40
2019-03-17T17:00:28.658Z,10.50
2019-03-17T17:02:55.244Z,10.50
2019-03-17T17:05:22.651Z,10.50
2019-03-17T17:07:49.497Z,10.30
2019-03-17T17:10:20.024Z,10.10
2019-03-17T17:12:46.868Z,10.00
2019-03-17T17:15:15.247Z,9.80
2019-03-17T17:17:42.093Z,9.50
2019-03-17T17:20:13.236Z,9.40
2019-03-17T17:22:40.079Z,9.20
2019-03-17T17:25:07.848Z,9.10
2019-03-17T17:27:34.687Z,8.90
2019-03-17T17:30:01.531Z,9.00
2019-03-17T17:32:28.374Z,9.00
2019-03-17T17:34:55.216Z,8.90
2019-03-17T17:37:22.792Z,8.90
2019-03-17T17:39:49.526Z,8.80
2019-03-17T17:42:16.361Z,8.80
2019-03-17T17:44:43.008Z,8.60
2019-03-17T17:47:09.742Z,8.60
2019-03-17T17:49:36.324Z,8.50
2019-03-17T17:52:03.711Z,8.40
2019-03-17T17:54:30.578Z,8.40
2019-03-17T17:56:58.349Z,8.20
2019-03-17T17:59:25.196Z,8.10
2019-03-17T18:01:52.038Z,8.10
2019-03-17T18:04:18.611Z,8.00
2019-03-17T18:06:45.410Z,7.90
2019-03-17T18:09:12.253Z,7.70
2019-03-17T18:11:38.941Z,7.60
2019-03-17T18:14:05.633Z,7.40
2019-03-17T18:16:32.476Z,7.50
2019-03-17T18:18:59.321Z,7.40
2019-03-17T18:21:25.959Z,7.30
2019-03-17T18:23:52.698Z,7.40
2019-03-17T18:26:19.544Z,7.40
2019-03-17T18:28:46.386Z,7.20
2019-03-17T18:31:13.229Z,7.00
2019-03-17T18:33:40.072Z,7.00
2019-03-17T18:36:06.925Z,7.10
2019-03-17T18:38:33.829Z,7.10
2019-03-17T18:41:00.604Z,7.00
2019-03-17T18:43:27.184Z,6.90
2019-03-17T18:45:53.982Z,6.70
2019-03-17T18:48:20.568Z,6.60
2019-03-17T18:50:47.363Z,6.50
2019-03-17T18:53:14.207Z,6.60
2019-03-17T18:55:41.054Z,6.60
2019-03-17T18:58:07.892Z,6.50
2019-03-17T19:00:35.044Z,6.50
2019-03-17T19:03:01.886Z,6.50
2019-03-17T19:05:28.729Z,6.40
2019-03-17T19:07:55.584Z,6.20
2019-03-17T19:10:22.422Z,6.10
2019-03-17T19:12:49.264Z,6.10
2019-03-17T19:15:19.178Z,6.10
2019-03-17T19:17:46.019Z,6.10
2019-03-17T19:20:13.784Z,6.00
2019-03-17T19:22:40.634Z,6.00
2019-03-17T19:25:12.078Z,5.80
2019-03-17T19:27:38.941Z,5.80
2019-03-17T19:30:07.302Z,5.80
2019-03-17T19:32:34.148Z,5.80
2019-03-17T19:35:00.728Z,5.80
2019-03-17T19:37:27.525Z,5.80
2019-03-17T19:39:54.236Z,5.80
2019-03-17T19:42:20.904Z,5.80
2019-03-17T19:44:47.751Z,5.90
2019-03-17T19:47:14.337Z,5.90
2019-03-17T19:49:40.864Z,5.90
2019-03-17T19:52:07.664Z,5.80
2019-03-17T19:54:34.507Z,5.90
2019-03-17T19:57:01.088Z,5.80
2019-03-17T19:59:27.624Z,5.80
2019-03-17T20:01:54.159Z,5.80
2019-03-17T20:04:30.030Z,5.80
2019-03-17T20:06:49.031Z,5.80
2019-03-17T20:09:15.613Z,5.90
2019-03-17T20:11:42.411Z,5.80
2019-03-17T20:14:09.254Z,5.90
2019-03-17T20:16:35.838Z,5.90
2019-03-17T20:19:02.633Z,5.90
2019-03-17T20:21:29.477Z,5.90
2019-03-17T20:23:56.320Z,5.80
2019-03-17T20:26:23.163Z,5.80
2019-03-17T20:28:50.007Z,5.80
2019-03-17T20:31:16.857Z,5.80
2019-03-17T20:33:43.713Z,5.90
2019-03-17T20:36:10.233Z,5.80
2019-03-17T20:38:36.766Z,5.80
2019-03-17T20:41:03.612Z,5.80
2019-03-17T20:43:35.010Z,5.80
2019-03-17T20:45:58.528Z,5.80
2019-03-17T20:48:25.464Z,5.90
2019-03-17T20:50:52.214Z,5.90
2019-03-17T20:53:19.057Z,5.90
2019-03-17T20:55:45.899Z,5.90
2019-03-17T20:58:12.742Z,6.00
2019-03-17T21:00:39.586Z,6.00
2019-03-17T21:03:06.430Z,5.90
2019-03-17T21:05:33.316Z,5.90
2019-03-17T21:08:00.117Z,5.90
2019-03-17T21:10:26.959Z,5.90
2019-03-17T21:12:53.803Z,5.90
2019-03-17T21:15:20.646Z,5.90
2019-03-17T21:17:47.491Z,5.90
2019-03-17T21:20:14.640Z,5.90
2019-03-17T21:22:41.177Z,5.80
2019-03-17T21:25:08.331Z,5.80
2019-03-17T21:27:34.908Z,5.80
2019-03-17T21:30:01.708Z,5.80
2019-03-17T21:32:28.549Z,5.90
2019-03-17T21:34:55.406Z,5.90
2019-03-17T21:37:22.238Z,5.90
2019-03-17T21:39:49.081Z,5.80
2019-03-17T21:42:15.661Z,5.90
2019-03-17T21:44:42.460Z,5.90
2019-03-17T21:47:09.302Z,5.90
2019-03-17T21:49:36.148Z,5.90
2019-03-17T21:52:02.989Z,5.90
2019-03-17T21:54:29.833Z,5.90
2019-03-17T21:56:56.681Z,5.90
2019-03-17T21:59:23.520Z,5.80
2019-03-17T22:01:50.366Z,5.70
2019-03-17T22:04:16.944Z,5.70
2019-03-17T22:06:43.759Z,5.70
2019-03-17T22:09:10.587Z,5.70
2019-03-17T22:11:37.431Z,5.70
2019-03-17T22:14:11.960Z,5.60
2019-03-17T22:16:32.409Z,5.70
2019-03-17T22:18:59.189Z,5.70
2019-03-17T22:21:26.038Z,5.60
2019-03-17T22:23:52.877Z,5.60
2019-03-17T22:26:19.719Z,5.60
2019-03-17T22:28:46.564Z,5.60
2019-03-17T22:31:13.406Z,5.60
2019-03-17T22:33:40.249Z,5.60
2019-03-17T22:36:07.093Z,5.70
2019-03-17T22:38:33.939Z,5.70
2019-03-17T22:41:00.781Z,5.70
2019-03-17T22:43:27.623Z,5.70
2019-03-17T22:45:54.466Z,5.70
2019-03-17T22:48:21.310Z,5.70
2019-03-17T22:50:48.153Z,5.70
2019-03-17T22:53:14.737Z,5.70
2019-03-17T22:55:41.532Z,5.80
2019-03-17T22:58:08.380Z,5.80
2019-03-17T23:00:36.800Z,5.70
2019-03-17T23:03:04.213Z,5.70
2019-03-17T23:05:31.057Z,5.70
2019-03-17T23:07:57.906Z,5.60
2019-03-17T23:10:24.743Z,5.60
2019-03-17T23:12:51.528Z,5.70
2019-03-17T23:15:18.124Z,5.70
2019-03-17T23:17:44.966Z,5.70
2019-03-17T23:20:13.348Z,5.70
2019-03-17T23:22:40.189Z,5.70
2019-03-17T23:25:08.262Z,5.70
2019-03-17T23:27:35.104Z,5.70
2019-03-17T23:30:01.949Z,5.70
2019-03-17T23:32:28.791Z,5.70
2019-03-17T23:34:55.372Z,5.70
2019-03-17T23:37:22.176Z,5.70
2019-03-17T23:39:49.018Z,5.70
2019-03-17T23:42:15.863Z,5.70
2019-03-17T23:44:48.801Z,5.60
2019-03-17T23:47:10.774Z,5.60
2019-03-17T23:49:37.309Z,5.60
2019-03-17T23:52:04.160Z,5.60
2019-03-17T23:54:30.998Z,5.60
2019-03-17T23:56:57.840Z,5.60
2019-03-17T23:59:24.683Z,5.60
